sensor_id;sensor_type;location;lat;lon;timestamp;P1;durP1;ratioP1;P2;durP2;ratioP2
52530;SDS011;38441;52.894;6.040;2022-12-16T00:01:54;23.50;;;15.65;;
52530;SDS011;38441;52.894;6.040;2022-12-16T00:04:22;22.20;;;14.82;;
52530;SDS011;38441;52.894;6.040;2022-12-16T00:06:48;23.90;;;14.82;;
52530;SDS011;38441;52.894;6.040;2022-12-16T00:09:14;21.90;;;14.27;;
52530;SDS011;38441;52.894;6.040;2022-12-16T00:11:40;22.52;;;14.25;;
52530;SDS011;38441;52.894;6.040;2022-12-16T00:14:06;21.35;;;13.88;;
52530;SDS011;38441;52.894;6.040;2022-12-16T00:16:32;19.52;;;13.05;;
52530;SDS011;38441;52.894;6.040;2022-12-16T00:18:58;20.38;;;14.00;;
52530;SDS011;38441;52.894;6.040;2022-12-16T00:21:24;24.85;;;14.30;;
52530;SDS011;38441;52.894;6.040;2022-12-16T00:23:53;23.27;;;13.60;;
52530;SDS011;38441;52.894;6.040;2022-12-16T00:26:20;19.13;;;13.02;;
52530;SDS011;38441;52.894;6.040;2022-12-16T00:28:46;18.98;;;13.38;;
52530;SDS011;38441;52.894;6.040;2022-12-16T00:31:12;18.35;;;12.18;;
52530;SDS011;38441;52.894;6.040;2022-12-16T00:33:38;18.95;;;13.35;;
52530;SDS011;38441;52.894;6.040;2022-12-16T00:36:04;20.10;;;11.98;;
52530;SDS011;38441;52.894;6.040;2022-12-16T00:38:30;18.67;;;12.23;;
52530;SDS011;38441;52.894;6.040;2022-12-16T00:40:56;17.77;;;12.18;;
52530;SDS011;38441;52.894;6.040;2022-12-16T00:43:22;20.02;;;12.70;;
52530;SDS011;38441;52.894;6.040;2022-12-16T00:45:48;18.60;;;13.20;;
52530;SDS011;38441;52.894;6.040;2022-12-16T00:48:15;19.20;;;12.10;;
52530;SDS011;38441;52.894;6.040;2022-12-16T00:50:43;17.20;;;12.23;;
52530;SDS011;38441;52.894;6.040;2022-12-16T00:53:11;16.02;;;11.95;;
52530;SDS011;38441;52.894;6.040;2022-12-16T00:55:37;17.13;;;11.70;;
52530;SDS011;38441;52.894;6.040;2022-12-16T00:58:03;21.23;;;12.55;;
52530;SDS011;38441;52.894;6.040;2022-12-16T01:00:30;18.83;;;12.98;;
52530;SDS011;38441;52.894;6.040;2022-12-16T01:02:55;16.15;;;11.55;;
52530;SDS011;38441;52.894;6.040;2022-12-16T01:05:22;20.63;;;13.15;;
52530;SDS011;38441;52.894;6.040;2022-12-16T01:07:51;20.80;;;12.35;;
52530;SDS011;38441;52.894;6.040;2022-12-16T01:10:20;18.63;;;12.65;;
52530;SDS011;38441;52.894;6.040;2022-12-16T01:12:49;19.08;;;12.60;;
52530;SDS011;38441;52.894;6.040;2022-12-16T01:15:16;20.40;;;12.68;;
52530;SDS011;38441;52.894;6.040;2022-12-16T01:17:42;20.15;;;12.25;;
52530;SDS011;38441;52.894;6.040;2022-12-16T01:20:08;17.25;;;11.57;;
52530;SDS011;38441;52.894;6.040;2022-12-16T01:22:35;16.35;;;11.63;;
52530;SDS011;38441;52.894;6.040;2022-12-16T01:25:01;16.63;;;11.13;;
52530;SDS011;38441;52.894;6.040;2022-12-16T01:27:27;15.13;;;10.57;;
52530;SDS011;38441;52.894;6.040;2022-12-16T01:29:55;16.50;;;10.73;;
52530;SDS011;38441;52.894;6.040;2022-12-16T01:32:21;16.50;;;10.38;;
52530;SDS011;38441;52.894;6.040;2022-12-16T01:34:50;16.25;;;10.23;;
52530;SDS011;38441;52.894;6.040;2022-12-16T01:37:17;16.33;;;11.00;;
52530;SDS011;38441;52.894;6.040;2022-12-16T01:39:44;18.52;;;10.45;;
52530;SDS011;38441;52.894;6.040;2022-12-16T01:42:11;15.00;;;9.90;;
52530;SDS011;38441;52.894;6.040;2022-12-16T01:44:38;13.48;;;10.35;;
52530;SDS011;38441;52.894;6.040;2022-12-16T01:47:08;18.30;;;10.95;;
52530;SDS011;38441;52.894;6.040;2022-12-16T01:49:49;16.00;;;10.90;;
52530;SDS011;38441;52.894;6.040;2022-12-16T01:52:23;17.80;;;11.38;;
52530;SDS011;38441;52.894;6.040;2022-12-16T01:54:58;15.20;;;10.38;;
52530;SDS011;38441;52.894;6.040;2022-12-16T01:57:39;17.80;;;10.20;;
52530;SDS011;38441;52.894;6.040;2022-12-16T02:00:10;17.70;;;9.88;;
52530;SDS011;38441;52.894;6.040;2022-12-16T02:02:36;14.98;;;9.50;;
52530;SDS011;38441;52.894;6.040;2022-12-16T02:05:03;16.98;;;10.35;;
52530;SDS011;38441;52.894;6.040;2022-12-16T02:08:00;14.55;;;10.15;;
52530;SDS011;38441;52.894;6.040;2022-12-16T02:18:59;13.98;;;9.35;;
52530;SDS011;38441;52.894;6.040;2022-12-16T02:22:07;13.20;;;8.32;;
52530;SDS011;38441;52.894;6.040;2022-12-16T02:32:52;11.23;;;7.15;;
52530;SDS011;38441;52.894;6.040;2022-12-16T02:38:25;12.00;;;7.75;;
52530;SDS011;38441;52.894;6.040;2022-12-16T02:41:03;9.73;;;6.78;;
52530;SDS011;38441;52.894;6.040;2022-12-16T02:46:07;9.98;;;6.85;;
52530;SDS011;38441;52.894;6.040;2022-12-16T02:48:33;11.63;;;6.57;;
52530;SDS011;38441;52.894;6.040;2022-12-16T02:50:59;10.48;;;7.43;;
52530;SDS011;38441;52.894;6.040;2022-12-16T02:53:25;12.10;;;6.50;;
52530;SDS011;38441;52.894;6.040;2022-12-16T02:56:01;10.52;;;7.28;;
52530;SDS011;38441;52.894;6.040;2022-12-16T02:58:38;12.32;;;7.07;;
52530;SDS011;38441;52.894;6.040;2022-12-16T03:06:27;11.48;;;6.95;;
52530;SDS011;38441;52.894;6.040;2022-12-16T03:08:55;11.80;;;7.18;;
52530;SDS011;38441;52.894;6.040;2022-12-16T03:11:25;12.15;;;7.20;;
52530;SDS011;38441;52.894;6.040;2022-12-16T03:13:53;11.93;;;6.28;;
52530;SDS011;38441;52.894;6.040;2022-12-16T03:16:22;9.32;;;6.20;;
52530;SDS011;38441;52.894;6.040;2022-12-16T03:18:52;8.38;;;5.75;;
52530;SDS011;38441;52.894;6.040;2022-12-16T03:21:21;9.20;;;5.10;;
52530;SDS011;38441;52.894;6.040;2022-12-16T03:23:56;9.00;;;5.43;;
52530;SDS011;38441;52.894;6.040;2022-12-16T03:26:35;9.20;;;5.13;;
52530;SDS011;38441;52.894;6.040;2022-12-16T03:29:15;8.68;;;5.78;;
52530;SDS011;38441;52.894;6.040;2022-12-16T03:31:56;7.63;;;5.30;;
52530;SDS011;38441;52.894;6.040;2022-12-16T03:34:35;8.90;;;5.20;;
52530;SDS011;38441;52.894;6.040;2022-12-16T03:37:11;8.65;;;5.03;;
52530;SDS011;38441;52.894;6.040;2022-12-16T03:39:42;9.90;;;5.88;;
52530;SDS011;38441;52.894;6.040;2022-12-16T03:42:15;9.18;;;5.00;;
52530;SDS011;38441;52.894;6.040;2022-12-16T03:44:42;9.30;;;5.20;;
52530;SDS011;38441;52.894;6.040;2022-12-16T03:47:08;9.57;;;5.57;;
52530;SDS011;38441;52.894;6.040;2022-12-16T03:49:35;7.68;;;5.22;;
52530;SDS011;38441;52.894;6.040;2022-12-16T03:52:01;7.85;;;4.80;;
52530;SDS011;38441;52.894;6.040;2022-12-16T03:54:27;11.77;;;5.13;;
52530;SDS011;38441;52.894;6.040;2022-12-16T03:56:53;10.43;;;5.10;;
52530;SDS011;38441;52.894;6.040;2022-12-16T03:59:19;9.18;;;5.30;;
52530;SDS011;38441;52.894;6.040;2022-12-16T04:01:45;11.43;;;5.47;;
52530;SDS011;38441;52.894;6.040;2022-12-16T04:04:11;7.85;;;5.28;;
52530;SDS011;38441;52.894;6.040;2022-12-16T04:06:37;11.43;;;5.53;;
52530;SDS011;38441;52.894;6.040;2022-12-16T04:09:03;10.25;;;5.18;;
52530;SDS011;38441;52.894;6.040;2022-12-16T04:11:29;9.02;;;5.25;;
52530;SDS011;38441;52.894;6.040;2022-12-16T04:14:13;10.02;;;5.47;;
52530;SDS011;38441;52.894;6.040;2022-12-16T04:16:58;9.02;;;4.60;;
52530;SDS011;38441;52.894;6.040;2022-12-16T04:19:50;11.85;;;5.28;;
52530;SDS011;38441;52.894;6.040;2022-12-16T04:22:35;9.90;;;5.57;;
52530;SDS011;38441;52.894;6.040;2022-12-16T04:25:29;8.50;;;4.65;;
52530;SDS011;38441;52.894;6.040;2022-12-16T04:27:58;9.23;;;4.80;;
52530;SDS011;38441;52.894;6.040;2022-12-16T04:30:24;7.47;;;4.60;;
52530;SDS011;38441;52.894;6.040;2022-12-16T04:32:55;10.10;;;5.45;;
52530;SDS011;38441;52.894;6.040;2022-12-16T04:35:42;8.43;;;4.75;;
52530;SDS011;38441;52.894;6.040;2022-12-16T04:38:26;9.00;;;4.82;;
52530;SDS011;38441;52.894;6.040;2022-12-16T04:41:11;9.15;;;5.00;;
52530;SDS011;38441;52.894;6.040;2022-12-16T04:43:55;8.48;;;4.80;;
52530;SDS011;38441;52.894;6.040;2022-12-16T04:46:40;7.80;;;4.65;;
52530;SDS011;38441;52.894;6.040;2022-12-16T04:49:25;10.10;;;4.65;;
52530;SDS011;38441;52.894;6.040;2022-12-16T04:52:09;10.05;;;5.03;;
52530;SDS011;38441;52.894;6.040;2022-12-16T04:54:53;8.40;;;4.65;;
52530;SDS011;38441;52.894;6.040;2022-12-16T04:57:38;8.38;;;4.80;;
52530;SDS011;38441;52.894;6.040;2022-12-16T05:00:22;9.85;;;4.85;;
52530;SDS011;38441;52.894;6.040;2022-12-16T05:03:07;10.82;;;4.90;;
52530;SDS011;38441;52.894;6.040;2022-12-16T05:05:51;9.77;;;4.65;;
52530;SDS011;38441;52.894;6.040;2022-12-16T05:08:35;8.60;;;4.40;;
52530;SDS011;38441;52.894;6.040;2022-12-16T05:11:20;8.40;;;4.85;;
52530;SDS011;38441;52.894;6.040;2022-12-16T05:14:04;8.77;;;5.07;;
52530;SDS011;38441;52.894;6.040;2022-12-16T05:16:48;9.25;;;4.40;;
52530;SDS011;38441;52.894;6.040;2022-12-16T05:19:33;7.80;;;5.00;;
52530;SDS011;38441;52.894;6.040;2022-12-16T05:22:18;10.60;;;4.90;;
52530;SDS011;38441;52.894;6.040;2022-12-16T05:25:22;8.88;;;4.80;;
52530;SDS011;38441;52.894;6.040;2022-12-16T05:28:07;10.52;;;4.55;;
52530;SDS011;38441;52.894;6.040;2022-12-16T05:30:51;13.15;;;4.80;;
52530;SDS011;38441;52.894;6.040;2022-12-16T05:33:36;7.85;;;4.38;;
52530;SDS011;38441;52.894;6.040;2022-12-16T05:36:20;11.25;;;5.05;;
52530;SDS011;38441;52.894;6.040;2022-12-16T05:39:05;9.48;;;4.50;;
52530;SDS011;38441;52.894;6.040;2022-12-16T05:41:49;10.00;;;4.93;;
52530;SDS011;38441;52.894;6.040;2022-12-16T05:44:34;7.18;;;4.53;;
52530;SDS011;38441;52.894;6.040;2022-12-16T05:47:18;10.05;;;5.18;;
52530;SDS011;38441;52.894;6.040;2022-12-16T05:50:03;8.75;;;4.43;;
52530;SDS011;38441;52.894;6.040;2022-12-16T05:52:49;11.50;;;4.60;;
52530;SDS011;38441;52.894;6.040;2022-12-16T05:55:34;9.32;;;4.43;;
52530;SDS011;38441;52.894;6.040;2022-12-16T05:58:18;8.63;;;4.45;;
52530;SDS011;38441;52.894;6.040;2022-12-16T06:01:03;7.85;;;4.40;;
52530;SDS011;38441;52.894;6.040;2022-12-16T06:03:48;8.63;;;4.30;;
52530;SDS011;38441;52.894;6.040;2022-12-16T06:06:32;9.48;;;4.00;;
52530;SDS011;38441;52.894;6.040;2022-12-16T06:09:17;8.43;;;4.30;;
52530;SDS011;38441;52.894;6.040;2022-12-16T06:12:02;7.60;;;4.15;;
52530;SDS011;38441;52.894;6.040;2022-12-16T06:14:46;8.07;;;4.47;;
52530;SDS011;38441;52.894;6.040;2022-12-16T06:17:31;10.38;;;4.95;;
52530;SDS011;38441;52.894;6.040;2022-12-16T06:20:15;9.35;;;4.20;;
52530;SDS011;38441;52.894;6.040;2022-12-16T06:23:00;8.10;;;4.10;;
52530;SDS011;38441;52.894;6.040;2022-12-16T06:25:44;8.10;;;4.30;;
52530;SDS011;38441;52.894;6.040;2022-12-16T06:28:29;8.70;;;4.28;;
52530;SDS011;38441;52.894;6.040;2022-12-16T06:31:13;8.23;;;4.90;;
52530;SDS011;38441;52.894;6.040;2022-12-16T06:33:57;7.70;;;4.57;;
52530;SDS011;38441;52.894;6.040;2022-12-16T06:36:41;7.25;;;4.30;;
52530;SDS011;38441;52.894;6.040;2022-12-16T06:39:26;10.60;;;4.25;;
52530;SDS011;38441;52.894;6.040;2022-12-16T06:42:10;8.85;;;4.65;;
52530;SDS011;38441;52.894;6.040;2022-12-16T06:44:55;7.50;;;4.93;;
52530;SDS011;38441;52.894;6.040;2022-12-16T06:47:41;8.43;;;4.72;;
52530;SDS011;38441;52.894;6.040;2022-12-16T06:50:25;9.57;;;5.38;;
52530;SDS011;38441;52.894;6.040;2022-12-16T06:53:10;7.97;;;5.20;;
52530;SDS011;38441;52.894;6.040;2022-12-16T06:55:54;9.90;;;6.53;;
52530;SDS011;38441;52.894;6.040;2022-12-16T06:58:39;10.88;;;6.93;;
52530;SDS011;38441;52.894;6.040;2022-12-16T07:01:24;10.57;;;7.25;;
52530;SDS011;38441;52.894;6.040;2022-12-16T07:04:08;10.88;;;6.32;;
52530;SDS011;38441;52.894;6.040;2022-12-16T07:06:52;12.75;;;7.88;;
52530;SDS011;38441;52.894;6.040;2022-12-16T07:09:39;13.60;;;8.85;;
52530;SDS011;38441;52.894;6.040;2022-12-16T07:12:23;13.55;;;8.88;;
52530;SDS011;38441;52.894;6.040;2022-12-16T07:15:08;19.17;;;11.60;;
52530;SDS011;38441;52.894;6.040;2022-12-16T07:17:53;14.88;;;9.52;;
52530;SDS011;38441;52.894;6.040;2022-12-16T07:20:37;16.92;;;10.43;;
52530;SDS011;38441;52.894;6.040;2022-12-16T07:23:22;17.25;;;11.20;;
52530;SDS011;38441;52.894;6.040;2022-12-16T07:26:07;16.88;;;11.32;;
52530;SDS011;38441;52.894;6.040;2022-12-16T07:28:52;18.08;;;12.45;;
52530;SDS011;38441;52.894;6.040;2022-12-16T07:31:37;18.92;;;12.90;;
52530;SDS011;38441;52.894;6.040;2022-12-16T07:34:22;19.33;;;12.40;;
52530;SDS011;38441;52.894;6.040;2022-12-16T07:37:06;19.15;;;12.60;;
52530;SDS011;38441;52.894;6.040;2022-12-16T07:39:50;20.90;;;13.13;;
52530;SDS011;38441;52.894;6.040;2022-12-16T07:42:35;21.13;;;14.25;;
52530;SDS011;38441;52.894;6.040;2022-12-16T07:48:07;19.88;;;14.15;;
52530;SDS011;38441;52.894;6.040;2022-12-16T07:50:52;22.05;;;14.90;;
52530;SDS011;38441;52.894;6.040;2022-12-16T07:53:36;19.90;;;14.55;;
52530;SDS011;38441;52.894;6.040;2022-12-16T07:56:23;21.05;;;14.40;;
52530;SDS011;38441;52.894;6.040;2022-12-16T07:59:07;23.17;;;14.98;;
52530;SDS011;38441;52.894;6.040;2022-12-16T08:01:52;21.67;;;15.38;;
52530;SDS011;38441;52.894;6.040;2022-12-16T08:04:37;22.13;;;16.10;;
52530;SDS011;38441;52.894;6.040;2022-12-16T08:07:21;29.58;;;18.80;;
52530;SDS011;38441;52.894;6.040;2022-12-16T08:10:06;27.55;;;18.50;;
52530;SDS011;38441;52.894;6.040;2022-12-16T08:12:57;31.63;;;18.73;;
52530;SDS011;38441;52.894;6.040;2022-12-16T08:15:42;28.83;;;19.15;;
52530;SDS011;38441;52.894;6.040;2022-12-16T08:18:27;30.77;;;20.98;;
52530;SDS011;38441;52.894;6.040;2022-12-16T08:21:12;32.20;;;19.52;;
52530;SDS011;38441;52.894;6.040;2022-12-16T08:23:56;30.80;;;20.10;;
52530;SDS011;38441;52.894;6.040;2022-12-16T08:26:41;32.80;;;21.17;;
52530;SDS011;38441;52.894;6.040;2022-12-16T08:29:26;30.30;;;19.83;;
52530;SDS011;38441;52.894;6.040;2022-12-16T08:32:11;33.58;;;22.52;;
52530;SDS011;38441;52.894;6.040;2022-12-16T08:34:56;32.92;;;22.27;;
52530;SDS011;38441;52.894;6.040;2022-12-16T08:37:42;34.67;;;23.77;;
52530;SDS011;38441;52.894;6.040;2022-12-16T08:40:18;33.28;;;22.85;;
52530;SDS011;38441;52.894;6.040;2022-12-16T08:43:03;34.10;;;22.73;;
52530;SDS011;38441;52.894;6.040;2022-12-16T08:45:48;37.50;;;23.45;;
52530;SDS011;38441;52.894;6.040;2022-12-16T08:48:39;34.60;;;22.70;;
52530;SDS011;38441;52.894;6.040;2022-12-16T10:09:42;35.50;;;23.40;;
52530;SDS011;38441;52.894;6.040;2022-12-16T12:58:40;46.72;;;25.25;;
52530;SDS011;38441;52.894;6.040;2022-12-16T13:01:25;50.80;;;26.90;;
52530;SDS011;38441;52.894;6.040;2022-12-16T13:07:06;54.00;;;27.00;;
52530;SDS011;38441;52.894;6.040;2022-12-16T13:13:19;43.42;;;23.33;;
52530;SDS011;38441;52.894;6.040;2022-12-16T13:16:07;50.75;;;25.70;;
52530;SDS011;38441;52.894;6.040;2022-12-16T13:21:57;46.28;;;24.00;;
52530;SDS011;38441;52.894;6.040;2022-12-16T13:25:01;49.22;;;26.15;;
52530;SDS011;38441;52.894;6.040;2022-12-16T13:27:51;51.03;;;26.38;;
52530;SDS011;38441;52.894;6.040;2022-12-16T13:30:38;57.60;;;26.60;;
52530;SDS011;38441;52.894;6.040;2022-12-16T13:33:27;53.47;;;25.27;;
52530;SDS011;38441;52.894;6.040;2022-12-16T13:36:13;50.78;;;24.67;;
52530;SDS011;38441;52.894;6.040;2022-12-16T13:39:02;51.85;;;25.88;;
52530;SDS011;38441;52.894;6.040;2022-12-16T13:41:49;56.80;;;27.80;;
52530;SDS011;38441;52.894;6.040;2022-12-16T13:47:32;56.25;;;27.05;;
52530;SDS011;38441;52.894;6.040;2022-12-16T13:53:21;54.58;;;25.75;;
52530;SDS011;38441;52.894;6.040;2022-12-16T13:56:08;52.95;;;25.65;;
52530;SDS011;38441;52.894;6.040;2022-12-16T13:58:59;55.55;;;25.13;;
52530;SDS011;38441;52.894;6.040;2022-12-16T14:01:48;57.67;;;26.50;;
52530;SDS011;38441;52.894;6.040;2022-12-16T14:04:44;50.72;;;24.45;;
52530;SDS011;38441;52.894;6.040;2022-12-16T14:07:32;50.05;;;23.25;;
52530;SDS011;38441;52.894;6.040;2022-12-16T14:13:14;56.03;;;23.58;;
52530;SDS011;38441;52.894;6.040;2022-12-16T14:16:04;52.28;;;23.83;;
52530;SDS011;38441;52.894;6.040;2022-12-16T14:22:05;56.60;;;25.55;;
52530;SDS011;38441;52.894;6.040;2022-12-16T14:25:01;58.15;;;24.75;;
52530;SDS011;38441;52.894;6.040;2022-12-16T14:27:46;61.17;;;26.48;;
52530;SDS011;38441;52.894;6.040;2022-12-16T14:30:31;53.97;;;25.05;;
52530;SDS011;38441;52.894;6.040;2022-12-16T14:33:23;51.80;;;25.45;;
52530;SDS011;38441;52.894;6.040;2022-12-16T14:36:18;56.15;;;24.63;;
52530;SDS011;38441;52.894;6.040;2022-12-16T14:39:03;55.22;;;24.83;;
52530;SDS011;38441;52.894;6.040;2022-12-16T14:44:44;50.80;;;23.85;;
52530;SDS011;38441;52.894;6.040;2022-12-16T14:47:30;51.45;;;24.23;;
52530;SDS011;38441;52.894;6.040;2022-12-16T14:50:20;54.60;;;25.67;;
52530;SDS011;38441;52.894;6.040;2022-12-16T14:53:16;51.63;;;23.92;;
52530;SDS011;38441;52.894;6.040;2022-12-16T14:56:08;53.00;;;26.17;;
52530;SDS011;38441;52.894;6.040;2022-12-16T15:02:13;53.75;;;25.08;;
52530;SDS011;38441;52.894;6.040;2022-12-16T15:05:04;56.67;;;27.25;;
52530;SDS011;38441;52.894;6.040;2022-12-16T15:07:49;57.78;;;28.33;;
52530;SDS011;38441;52.894;6.040;2022-12-16T15:10:34;52.90;;;26.85;;
52530;SDS011;38441;52.894;6.040;2022-12-16T15:13:19;54.97;;;26.52;;
52530;SDS011;38441;52.894;6.040;2022-12-16T15:16:05;53.53;;;25.70;;
52530;SDS011;38441;52.894;6.040;2022-12-16T15:18:54;52.95;;;25.38;;
52530;SDS011;38441;52.894;6.040;2022-12-16T15:24:27;49.90;;;22.70;;
52530;SDS011;38441;52.894;6.040;2022-12-16T15:33:22;49.22;;;22.75;;
52530;SDS011;38441;52.894;6.040;2022-12-16T15:39:09;47.70;;;22.70;;
52530;SDS011;38441;52.894;6.040;2022-12-16T15:41:54;50.10;;;21.95;;
52530;SDS011;38441;52.894;6.040;2022-12-16T15:44:50;55.47;;;23.60;;
52530;SDS011;38441;52.894;6.040;2022-12-16T15:47:36;50.38;;;22.23;;
52530;SDS011;38441;52.894;6.040;2022-12-16T15:50:22;47.60;;;22.52;;
52530;SDS011;38441;52.894;6.040;2022-12-16T15:53:30;44.83;;;22.75;;
52530;SDS011;38441;52.894;6.040;2022-12-16T15:56:17;50.50;;;22.30;;
52530;SDS011;38441;52.894;6.040;2022-12-16T16:02:09;46.10;;;21.80;;
52530;SDS011;38441;52.894;6.040;2022-12-16T16:07:35;53.78;;;23.67;;
52530;SDS011;38441;52.894;6.040;2022-12-16T16:10:20;48.45;;;22.30;;
52530;SDS011;38441;52.894;6.040;2022-12-16T16:13:11;47.20;;;22.75;;
52530;SDS011;38441;52.894;6.040;2022-12-16T16:15:56;44.38;;;20.90;;
52530;SDS011;38441;52.894;6.040;2022-12-16T16:18:41;48.30;;;22.80;;
52530;SDS011;38441;52.894;6.040;2022-12-16T16:21:26;42.63;;;21.13;;
52530;SDS011;38441;52.894;6.040;2022-12-16T16:24:12;47.25;;;20.83;;
52530;SDS011;38441;52.894;6.040;2022-12-16T16:26:58;44.33;;;21.33;;
52530;SDS011;38441;52.894;6.040;2022-12-16T16:29:44;45.88;;;22.13;;
52530;SDS011;38441;52.894;6.040;2022-12-16T16:32:29;51.25;;;23.00;;
52530;SDS011;38441;52.894;6.040;2022-12-16T16:35:14;45.03;;;21.30;;
52530;SDS011;38441;52.894;6.040;2022-12-16T16:37:59;47.30;;;21.67;;
52530;SDS011;38441;52.894;6.040;2022-12-16T16:40:45;45.28;;;21.60;;
52530;SDS011;38441;52.894;6.040;2022-12-16T16:43:30;43.97;;;21.63;;
52530;SDS011;38441;52.894;6.040;2022-12-16T16:49:02;45.47;;;20.60;;
52530;SDS011;38441;52.894;6.040;2022-12-16T16:51:47;47.80;;;22.45;;
52530;SDS011;38441;52.894;6.040;2022-12-16T16:54:31;46.25;;;21.85;;
52530;SDS011;38441;52.894;6.040;2022-12-16T16:57:16;45.30;;;21.52;;
52530;SDS011;38441;52.894;6.040;2022-12-16T17:00:01;48.88;;;22.17;;
52530;SDS011;38441;52.894;6.040;2022-12-16T17:02:45;46.85;;;23.77;;
52530;SDS011;38441;52.894;6.040;2022-12-16T17:05:30;50.40;;;24.02;;
52530;SDS011;38441;52.894;6.040;2022-12-16T17:08:15;46.08;;;22.98;;
52530;SDS011;38441;52.894;6.040;2022-12-16T17:10:59;49.63;;;23.23;;
52530;SDS011;38441;52.894;6.040;2022-12-16T17:13:44;53.75;;;25.60;;
52530;SDS011;38441;52.894;6.040;2022-12-16T17:16:29;54.83;;;24.92;;
52530;SDS011;38441;52.894;6.040;2022-12-16T17:19:30;55.67;;;25.38;;
52530;SDS011;38441;52.894;6.040;2022-12-16T17:22:15;48.55;;;23.67;;
52530;SDS011;38441;52.894;6.040;2022-12-16T17:24:59;49.47;;;22.83;;
52530;SDS011;38441;52.894;6.040;2022-12-16T17:27:44;52.65;;;24.85;;
52530;SDS011;38441;52.894;6.040;2022-12-16T17:30:29;46.70;;;23.52;;
52530;SDS011;38441;52.894;6.040;2022-12-16T17:33:14;56.13;;;24.67;;
52530;SDS011;38441;52.894;6.040;2022-12-16T17:35:59;54.05;;;24.38;;
52530;SDS011;38441;52.894;6.040;2022-12-16T17:38:44;56.63;;;24.73;;
52530;SDS011;38441;52.894;6.040;2022-12-16T17:41:30;47.47;;;23.33;;
52530;SDS011;38441;52.894;6.040;2022-12-16T17:44:15;47.88;;;22.85;;
52530;SDS011;38441;52.894;6.040;2022-12-16T17:47:00;43.08;;;20.95;;
52530;SDS011;38441;52.894;6.040;2022-12-16T17:49:45;49.83;;;22.50;;
52530;SDS011;38441;52.894;6.040;2022-12-16T17:52:32;45.55;;;20.85;;
52530;SDS011;38441;52.894;6.040;2022-12-16T17:55:16;42.80;;;21.15;;
52530;SDS011;38441;52.894;6.040;2022-12-16T17:58:01;43.03;;;20.55;;
52530;SDS011;38441;52.894;6.040;2022-12-16T18:00:46;44.60;;;20.92;;
52530;SDS011;38441;52.894;6.040;2022-12-16T18:03:31;43.42;;;20.05;;
52530;SDS011;38441;52.894;6.040;2022-12-16T18:06:15;46.13;;;21.00;;
52530;SDS011;38441;52.894;6.040;2022-12-16T18:09:00;45.28;;;21.02;;
52530;SDS011;38441;52.894;6.040;2022-12-16T18:11:45;49.10;;;21.60;;
52530;SDS011;38441;52.894;6.040;2022-12-16T18:14:30;47.00;;;21.10;;
52530;SDS011;38441;52.894;6.040;2022-12-16T18:17:15;46.83;;;20.88;;
52530;SDS011;38441;52.894;6.040;2022-12-16T18:19:59;41.72;;;20.63;;
52530;SDS011;38441;52.894;6.040;2022-12-16T18:22:44;41.15;;;19.95;;
52530;SDS011;38441;52.894;6.040;2022-12-16T18:25:29;47.42;;;21.77;;
52530;SDS011;38441;52.894;6.040;2022-12-16T18:28:13;43.00;;;20.38;;
52530;SDS011;38441;52.894;6.040;2022-12-16T18:31:02;41.83;;;19.20;;
52530;SDS011;38441;52.894;6.040;2022-12-16T18:33:47;46.05;;;19.67;;
52530;SDS011;38441;52.894;6.040;2022-12-16T18:36:35;39.28;;;19.80;;
52530;SDS011;38441;52.894;6.040;2022-12-16T18:39:20;40.85;;;18.40;;
52530;SDS011;38441;52.894;6.040;2022-12-16T18:42:05;38.90;;;17.40;;
52530;SDS011;38441;52.894;6.040;2022-12-16T18:44:50;39.15;;;17.65;;
52530;SDS011;38441;52.894;6.040;2022-12-16T18:47:35;41.17;;;18.30;;
52530;SDS011;38441;52.894;6.040;2022-12-16T18:50:20;41.78;;;18.13;;
52530;SDS011;38441;52.894;6.040;2022-12-16T18:53:07;47.80;;;18.98;;
52530;SDS011;38441;52.894;6.040;2022-12-16T18:56:04;52.05;;;20.35;;
52530;SDS011;38441;52.894;6.040;2022-12-16T18:58:52;44.92;;;19.65;;
52530;SDS011;38441;52.894;6.040;2022-12-16T19:01:42;45.60;;;20.83;;
52530;SDS011;38441;52.894;6.040;2022-12-16T19:04:30;42.70;;;20.15;;
52530;SDS011;38441;52.894;6.040;2022-12-16T19:07:19;44.00;;;19.92;;
52530;SDS011;38441;52.894;6.040;2022-12-16T19:10:04;48.28;;;22.05;;
52530;SDS011;38441;52.894;6.040;2022-12-16T19:12:56;48.67;;;20.45;;
52530;SDS011;38441;52.894;6.040;2022-12-16T19:15:41;46.63;;;20.23;;
52530;SDS011;38441;52.894;6.040;2022-12-16T19:18:30;40.78;;;19.75;;
52530;SDS011;38441;52.894;6.040;2022-12-16T19:21:17;44.88;;;20.70;;
52530;SDS011;38441;52.894;6.040;2022-12-16T19:24:14;46.08;;;21.02;;
52530;SDS011;38441;52.894;6.040;2022-12-16T19:27:02;46.50;;;21.13;;
52530;SDS011;38441;52.894;6.040;2022-12-16T19:29:47;50.10;;;21.40;;
52530;SDS011;38441;52.894;6.040;2022-12-16T19:43:01;45.55;;;20.83;;
52530;SDS011;38441;52.894;6.040;2022-12-16T19:45:50;44.30;;;20.55;;
52530;SDS011;38441;52.894;6.040;2022-12-16T19:48:35;56.03;;;24.20;;
52530;SDS011;38441;52.894;6.040;2022-12-16T19:51:23;50.92;;;23.63;;
52530;SDS011;38441;52.894;6.040;2022-12-16T19:54:08;45.97;;;21.50;;
52530;SDS011;38441;52.894;6.040;2022-12-16T19:56:59;50.03;;;21.73;;
52530;SDS011;38441;52.894;6.040;2022-12-16T19:59:44;49.05;;;21.17;;
52530;SDS011;38441;52.894;6.040;2022-12-16T20:02:29;45.30;;;20.85;;
52530;SDS011;38441;52.894;6.040;2022-12-16T20:05:14;47.90;;;21.05;;
52530;SDS011;38441;52.894;6.040;2022-12-16T20:07:59;46.85;;;21.48;;
52530;SDS011;38441;52.894;6.040;2022-12-16T20:10:44;44.75;;;19.65;;
52530;SDS011;38441;52.894;6.040;2022-12-16T20:13:30;42.78;;;19.80;;
52530;SDS011;38441;52.894;6.040;2022-12-16T20:16:21;40.80;;;18.58;;
52530;SDS011;38441;52.894;6.040;2022-12-16T20:19:06;43.97;;;19.65;;
52530;SDS011;38441;52.894;6.040;2022-12-16T20:21:51;43.25;;;20.58;;
52530;SDS011;38441;52.894;6.040;2022-12-16T20:24:36;43.80;;;18.77;;
52530;SDS011;38441;52.894;6.040;2022-12-16T20:30:40;39.83;;;20.33;;
52530;SDS011;38441;52.894;6.040;2022-12-16T20:33:25;41.13;;;19.90;;
52530;SDS011;38441;52.894;6.040;2022-12-16T20:36:10;46.55;;;21.27;;
52530;SDS011;38441;52.894;6.040;2022-12-16T20:38:54;42.53;;;20.88;;
52530;SDS011;38441;52.894;6.040;2022-12-16T20:41:39;50.30;;;21.50;;
52530;SDS011;38441;52.894;6.040;2022-12-16T20:44:24;44.08;;;19.52;;
52530;SDS011;38441;52.894;6.040;2022-12-16T20:47:09;44.90;;;22.08;;
52530;SDS011;38441;52.894;6.040;2022-12-16T20:49:53;46.22;;;20.70;;
52530;SDS011;38441;52.894;6.040;2022-12-16T20:52:38;44.17;;;20.75;;
52530;SDS011;38441;52.894;6.040;2022-12-16T20:55:23;49.80;;;19.50;;
52530;SDS011;38441;52.894;6.040;2022-12-16T20:58:07;46.72;;;20.20;;
52530;SDS011;38441;52.894;6.040;2022-12-16T21:00:52;48.05;;;21.10;;
52530;SDS011;38441;52.894;6.040;2022-12-16T21:03:37;42.08;;;19.75;;
52530;SDS011;38441;52.894;6.040;2022-12-16T21:06:22;44.60;;;18.80;;
52530;SDS011;38441;52.894;6.040;2022-12-16T21:09:06;41.78;;;20.08;;
52530;SDS011;38441;52.894;6.040;2022-12-16T21:11:51;46.33;;;19.65;;
52530;SDS011;38441;52.894;6.040;2022-12-16T21:14:36;40.38;;;19.33;;
52530;SDS011;38441;52.894;6.040;2022-12-16T21:17:21;37.45;;;18.65;;
52530;SDS011;38441;52.894;6.040;2022-12-16T21:20:06;45.03;;;19.80;;
52530;SDS011;38441;52.894;6.040;2022-12-16T21:22:58;43.05;;;20.33;;
52530;SDS011;38441;52.894;6.040;2022-12-16T21:25:43;55.67;;;24.15;;
52530;SDS011;38441;52.894;6.040;2022-12-16T21:28:28;46.30;;;21.90;;
52530;SDS011;38441;52.894;6.040;2022-12-16T21:31:13;47.38;;;21.38;;